Flight Track Log - Related Links

Times and Time Zones

All times are in EDT time to prevent confusion due to time zone crossing. See the C-GDSJ flight status page for this flight to view local times or setup timezone preferences in your user account.

Time Position Orientation Groundspeed Altitude Reporting Facility
EDT Latitude Longitude Course Direction KTS MPH feet Rate Location/Type
Fri 07:05:11 AM 39.8167 -86.3000 270° West 84 97 1,300  Level Indianapolis TRACON
Fri 07:06:11 AM 39.8167 -86.3167 270° West 96 110 2,000 700 Climbing Indianapolis TRACON
Fri 07:07:11 AM 39.8333 -86.3333 322° Northwest 91 105 2,700 650 Climbing Indianapolis TRACON
Fri 07:08:11 AM 39.8500 -86.3333 360° North 105 121 3,300 550 Climbing Indianapolis TRACON
Fri 07:09:11 AM 39.8667 -86.3000 57° Northeast 113 130 3,800 550 Climbing Indianapolis TRACON
Fri 07:10:11 AM 39.8833 -86.2667 57° Northeast 116 133 4,400 576 Climbing Indianapolis TRACON
Fri 07:11:16 AM 39.9061 -86.2314 50° Northeast 114 131 5,000 571 Climbing Indianapolis Center
Fri 07:12:17 AM 39.9250 -86.1964 55° Northeast 117 135 5,600 541 Climbing Indianapolis Center
Fri 07:13:18 AM 39.9439 -86.1606 55° Northeast 118 136 6,100 541 Climbing Indianapolis Center
Fri 07:14:19 AM 39.9631 -86.1244 55° Northeast 120 138 6,700 443 Climbing Indianapolis Center
Fri 07:15:20 AM 39.9839 -86.0886 53° Northeast 121 139 7,000 148 Climbing Indianapolis Center
Fri 07:16:21 AM 40.0089 -86.0478 51° Northeast 132 152 7,000  Level Indianapolis Center
Fri 07:17:22 AM 40.0333 -86.0033 54° Northeast 142 163 7,000  Level Indianapolis Center
Fri 07:18:23 AM 40.0567 -85.9592 55° Northeast 146 168 7,000  Level Indianapolis Center
Fri 07:19:24 AM 40.0800 -85.9153 55° Northeast 147 169 7,000  Level Indianapolis Center
Fri 07:20:25 AM 40.1033 -85.8717 55° Northeast 147 169 7,000  Level Indianapolis Center
Fri 07:21:26 AM 40.1319 -85.8194 54° Northeast 147 169 7,000  Level Indianapolis Center
Fri 07:22:27 AM 40.1556 -85.7758 55° Northeast 148 170 7,000  Level Indianapolis Center
Fri 07:23:29 AM 40.1794 -85.7328 54° Northeast 147 169 7,000  Level Indianapolis Center
Fri 07:24:30 AM 40.2036 -85.6897 54° Northeast 147 169 7,000  Level Indianapolis Center
Fri 07:25:31 AM 40.2272 -85.6469 54° Northeast 146 168 7,000  Level Indianapolis Center
Fri 07:26:32 AM 40.2506 -85.6044 54° Northeast 145 167 7,000  Level Indianapolis Center
Fri 07:27:33 AM 40.2742 -85.5617 54° Northeast 145 167 7,000  Level Indianapolis Center
Fri 07:28:34 AM 40.2972 -85.5183 55° Northeast 146 168 7,000  Level Indianapolis Center
Fri 07:29:35 AM 40.3206 -85.4744 55° Northeast 146 168 7,000  Level Indianapolis Center
Fri 07:30:37 AM 40.3431 -85.4311 56° Northeast 145 167 7,000  Level Indianapolis Center
Fri 07:31:38 AM 40.3697 -85.3783 56° Northeast 145 167 7,000  Level Indianapolis Center
Fri 07:32:29 AM 40.3894 -85.3447 52° Northeast 145 167 7,000  Level Chicago Center
Fri 07:33:30 AM 40.4142 -85.3008 53° Northeast 147 169 7,000  Level Chicago Center
Fri 07:34:31 AM 40.4378 -85.2589 54° Northeast 145 167 7,000  Level Chicago Center
Fri 07:35:33 AM 40.4622 -85.2147 54° Northeast 148 170 7,000  Level Chicago Center
Fri 07:36:34 AM 40.4853 -85.1717 55° Northeast 146 168 7,000  Level Chicago Center
Fri 07:37:36 AM 40.5089 -85.1269 55° Northeast 148 170 7,000  Level Chicago Center
Fri 07:38:37 AM 40.5342 -85.0728 58° Northeast 146 168 7,000  Level Chicago Center
Fri 07:39:38 AM 40.5556 -85.0247 60° Northeast 150 173 7,000  Level Chicago Center
Fri 07:40:40 AM 40.5758 -84.9794 59° Northeast 147 169 7,000  Level Chicago Center
Fri 07:41:41 AM 40.5967 -84.9311 60° Northeast 149 171 7,000  Level Chicago Center
Fri 07:42:43 AM 40.6189 -84.8839 58° Northeast 151 174 7,000  Level Chicago Center
Fri 07:43:44 AM 40.6419 -84.8381 56° Northeast 151 174 7,000  Level Chicago Center
Fri 07:44:45 AM 40.6661 -84.7875 58° Northeast 154 177 7,000  Level Chicago Center
Fri 07:45:47 AM 40.6878 -84.7431 57° Northeast 147 169 7,000  Level Chicago Center
Fri 07:46:48 AM 40.7114 -84.6975 56° Northeast 150 173 7,000  Level Chicago Center
Fri 07:47:50 AM 40.7400 -84.6433 55° Northeast 150 173 7,000  Level Chicago Center
Fri 07:48:51 AM 40.7650 -84.5994 53° Northeast 150 173 7,000  Level Chicago Center
Fri 07:49:53 AM 40.7894 -84.5556 54° Northeast 150 173 7,000  Level Chicago Center
Fri 07:50:54 AM 40.8150 -84.5122 52° Northeast 150 173 7,000  Level Chicago Center
Fri 07:51:56 AM 40.8397 -84.4681 53° Northeast 150 173 7,000  Level Chicago Center
Fri 07:52:57 AM 40.8647 -84.4242 53° Northeast 150 173 7,000  Level Chicago Center
Fri 07:53:58 AM 40.8892 -84.3783 55° Northeast 151 174 7,000  Level Chicago Center
Fri 07:55:00 AM 40.9142 -84.3333 54° Northeast 152 175 7,000  Level Chicago Center
Fri 07:56:01 AM 40.9439 -84.2792 54° Northeast 151 174 7,000  Level Chicago Center
Fri 07:57:03 AM 40.9667 -84.2333 57° Northeast 152 175 7,000  Level Chicago Center
Fri 07:58:04 AM 40.9903 -84.1875 56° Northeast 151 174 7,000  Level Chicago Center
Fri 07:59:06 AM 41.0144 -84.1436 54° Northeast 150 173 7,000  Level Chicago Center
Fri 08:00:57 AM 41.0586 -84.0664 53° Northeast 150 173 7,000  Level Cleveland Center
Fri 08:01:59 AM 41.0839 -84.0272 49° Northeast 144 166 7,000  Level Cleveland Center
Fri 08:03:01 AM 41.1100 -83.9883 48° Northeast 142 163 7,000  Level Cleveland Center
Fri 08:04:02 AM 41.1411 -83.9392 50° Northeast 145 167 7,000  Level Cleveland Center
Fri 08:05:04 AM 41.1661 -83.8972 52° Northeast 146 168 7,000  Level Cleveland Center
Fri 08:06:06 AM 41.1911 -83.8525 53° Northeast 146 168 7,000  Level Cleveland Center
Fri 08:07:08 AM 41.2175 -83.8100 50° Northeast 149 171 7,000  Level Cleveland Center
Fri 08:08:10 AM 41.2414 -83.7697 52° Northeast 142 163 7,000  Level Cleveland Center
Fri 08:09:12 AM 41.2664 -83.7278 52° Northeast 145 167 7,000  Level Cleveland Center
Fri 08:10:14 AM 41.2914 -83.6867 51° Northeast 145 167 7,000  Level Cleveland Center
Fri 08:11:16 AM 41.3211 -83.6361 52° Northeast 145 167 7,000  Level Cleveland Center
Fri 08:12:18 AM 41.3472 -83.5939 51° Northeast 147 169 7,000  Level Cleveland Center
Fri 08:13:20 AM 41.3725 -83.5511 52° Northeast 146 168 7,000  Level Cleveland Center
Fri 08:14:22 AM 41.3981 -83.5097 51° Northeast 147 169 7,000 -65 Level Cleveland Center
Fri 08:14:53 AM 41.4153 -83.4822 50° Northeast 149 171 6,900  Descending Cleveland Center
Fri 08:15:24 AM 41.4236 -83.4658 56° Northeast 149 171 7,000  Climbing Cleveland Center
Fri 08:15:42 AM 41.4347 -83.4489 49° Northeast 149 171 6,900  Descending Cleveland Center
Fri 08:16:26 AM 41.4483 -83.4217 56° Northeast 149 171 7,000  Climbing Cleveland Center
Fri 08:16:30 AM 41.4564 -83.4131 39° Northeast 149 171 6,900  Descending Cleveland Center
Fri 08:17:28 AM 41.4794 -83.3694 55° Northeast 150 173 7,000  Climbing Cleveland Center
Fri 08:17:31 AM 41.4808 -83.3689 17° North 149 171 6,900  Descending Cleveland Center
Fri 08:18:30 AM 41.5042 -83.3264 54° Northeast 148 170 7,000  Climbing Cleveland Center
Fri 08:18:32 AM 41.5053 -83.3250 43° Northeast 147 169 6,900  Descending Cleveland Center
Fri 08:19:32 AM 41.5297 -83.2844 51° Northeast 147 169 7,000 49 Climbing Cleveland Center
Fri 08:20:34 AM 41.5542 -83.2411 53° Northeast 147 169 7,000 -49 Level Cleveland Center
Fri 08:21:34 AM 41.5825 -83.1933 52° Northeast 148 170 6,900  Descending Cleveland Center
Fri 08:21:36 AM 41.5794 -83.1978 227° Southwest 148 170 7,000 109 Climbing Cleveland Center
Fri 08:22:29 AM 41.6042 -83.1572 51° Northeast 146 168 7,000 97 Level Cleveland Center
Fri 08:22:38 AM 41.6089 -83.1475 57° Northeast 146 168 7,100  Climbing Cleveland Center
Fri 08:23:36 AM 41.6331 -83.1081 51° Northeast 148 170 7,000  Descending Cleveland Center
Fri 08:23:40 AM 41.6336 -83.1036 81° East 146 168 7,100  Climbing Cleveland Center
Fri 08:24:42 AM 41.6589 -83.0611 51° Northeast 147 169 7,000 -54 Descending Cleveland Center
Fri 08:25:32 AM 41.6814 -83.0253 50° Northeast 148 170 7,000  Level Cleveland Center
Fri 08:25:44 AM 41.6842 -83.0181 63° Northeast 147 169 7,000  Level Cleveland Center
Fri 08:26:32 AM 41.7056 -82.9811 52° Northeast 148 170 7,000  Level Cleveland Center
Fri 08:26:46 AM 41.7094 -82.9739 54° Northeast 148 170 7,000  Level Cleveland Center
Fri 08:27:33 AM 41.7319 -82.9369 51° Northeast 148 170 7,000  Level Cleveland Center
Fri 08:27:48 AM 41.7344 -82.9314 59° Northeast 147 169 7,000  Level Cleveland Center
Fri 08:28:34 AM 41.7583 -82.8931 50° Northeast 146 168 7,000  Level Cleveland Center
Fri 08:28:50 AM 41.7647 -82.8794 58° Northeast 147 169 7,000  Level Cleveland Center
Fri 08:29:35 AM 41.7844 -82.8489 49° Northeast 148 170 7,000  Level Cleveland Center
Fri 08:29:52 AM 41.7892 -82.8367 63° Northeast 146 168 7,000  Level Cleveland Center
Fri 08:30:36 AM 41.8089 -82.8044 51° Northeast 150 173 7,000  Level Cleveland Center
Fri 08:30:54 AM 41.8139 -82.7919 62° Northeast 148 170 7,000  Level Cleveland Center
Fri 08:31:56 AM 41.8386 -82.7486 53° Northeast 147 169 7,000  Level Cleveland Center
Fri 08:32:58 AM 41.8631 -82.7044 53° Northeast 148 170 7,000  Level Cleveland Center
Fri 08:34:01 AM 41.8875 -82.6611 53° Northeast 146 168 7,000  Level Cleveland Center
Fri 08:35:03 AM 41.9158 -82.6072 55° Northeast 148 170 7,000  Level Cleveland Center
Fri 08:36:05 AM 41.9400 -82.5625 54° Northeast 148 170 7,000  Level Cleveland Center
Fri 08:37:07 AM 41.9644 -82.5178 54° Northeast 149 171 7,000  Level Cleveland Center
Fri 08:38:09 AM 41.9892 -82.4747 52° Northeast 147 169 7,000  Level Cleveland Center
Fri 08:39:11 AM 42.0139 -82.4297 54° Northeast 150 173 7,000  Level Cleveland Center
Fri 08:40:13 AM 42.0392 -82.3861 52° Northeast 149 171 7,000  Level Cleveland Center
Fri 08:41:14 AM 42.0703 -82.3328 52° Northeast 150 173 7,000  Level Cleveland Center
Fri 08:42:16 AM 42.0953 -82.2894 52° Northeast 150 173 7,000  Level Cleveland Center
Fri 08:43:18 AM 42.1197 -82.2461 53° Northeast 147 169 7,000  Level Cleveland Center
Fri 08:44:20 AM 42.1431 -82.2022 54° Northeast 145 167 7,000  Level Cleveland Center
Fri 08:45:22 AM 42.1675 -82.1586 53° Northeast 145 167 7,000  Level Cleveland Center
Fri 08:46:25 AM 42.1975 -82.1039 53° Northeast 151 174 7,000  Level Cleveland Center
Fri 08:47:27 AM 42.2214 -82.0614 53° Northeast 145 167 7,000  Level Cleveland Center
Fri 08:48:29 AM 42.2467 -82.0142 54° Northeast 151 174 7,000  Level Cleveland Center
Fri 08:49:31 AM 42.2719 -81.9706 52° Northeast 148 170 7,000  Level Cleveland Center
Fri 08:50:33 AM 42.2972 -81.9250 53° Northeast 149 171 7,000  Level Cleveland Center
Fri 08:51:35 AM 42.3219 -81.8800 53° Northeast 148 170 7,000  Level Cleveland Center
Fri 08:52:37 AM 42.3456 -81.8358 54° Northeast 145 167 7,000  Level Cleveland Center
Fri 08:53:39 AM 42.3733 -81.7828 55° Northeast 146 168 7,000  Level Cleveland Center
Fri 08:54:41 AM 42.3967 -81.7392 54° Northeast 144 166 7,000  Level Cleveland Center
Fri 08:55:43 AM 42.4206 -81.6939 54° Northeast 146 168 7,000  Level Cleveland Center
Fri 08:56:45 AM 42.4447 -81.6483 54° Northeast 147 169 7,000 -48 Level Cleveland Center
Fri 08:57:47 AM 42.4689 -81.6047 53° Northeast 145 167 6,900 -48 Descending Cleveland Center
Fri 08:58:50 AM 42.4939 -81.5603 53° Northeast 147 169 6,900  Level Cleveland Center
Fri 08:59:53 AM 42.5219 -81.5069 54° Northeast 147 169 6,900  Level Cleveland Center
Fri 09:00:55 AM 42.5464 -81.4622 53° Northeast 146 168 6,900  Level Cleveland Center
Fri 09:01:57 AM 42.5700 -81.4186 54° Northeast 144 166 6,900  Level Cleveland Center
Fri 09:02:59 AM 42.5861 -81.3683 66° East 143 165 6,900  Level Cleveland Center
Fri 09:04:01 AM 42.5992 -81.3161 71° East 144 166 6,900  Level Cleveland Center
Fri 09:05:03 AM 42.6097 -81.2606 76° East 148 170 6,900  Level Cleveland Center
Fri 09:06:05 AM 42.6225 -81.2047 73° East 150 173 6,900  Level Cleveland Center
Fri 09:07:07 AM 42.6372 -81.1483 70° East 154 177 6,900  Level Cleveland Center
Fri 09:08:10 AM 42.6536 -81.0836 71° East 154 177 6,900 48 Level Cleveland Center
Fri 09:09:12 AM 42.6686 -81.0292 69° East 154 177 7,000 48 Climbing Cleveland Center
Fri 09:10:14 AM 42.6828 -80.9758 70° East 152 175 7,000  Level Cleveland Center
Fri 09:11:16 AM 42.6967 -80.9200 71° East 152 175 7,000 48 Level Cleveland Center
Fri 09:12:18 AM 42.7092 -80.8642 73° East 152 175 7,100  Climbing Cleveland Center
Fri 09:13:20 AM 42.7331 -80.8169 55° Northeast 154 177 7,000 -48 Descending Cleveland Center
Fri 09:14:22 AM 42.7611 -80.7753 47° Northeast 152 175 7,000  Level Cleveland Center
Fri 09:15:24 AM 42.7925 -80.7275 48° Northeast 147 169 7,000 48 Level Cleveland Center
Fri 09:16:26 AM 42.8192 -80.6856 49° Northeast 146 168 7,100 48 Climbing Cleveland Center
Fri 09:17:28 AM 42.8489 -80.6453 45° Northeast 148 170 7,100  Level Cleveland Center
Fri 09:18:30 AM 42.8753 -80.6042 49° Northeast 146 168 7,100  Level Cleveland Center
Fri 09:19:06 AM 42.8833 -80.5667 74° East 150 173 7,100 -250 Level Toronto Center
Fri 09:20:06 AM 42.9167 -80.5167 48° Northeast 160 184 6,700 -500 Descending Toronto Center
Fri 09:21:06 AM 42.9333 -80.4500 71° East 160 184 6,100 -500 Descending Toronto Center
Fri 09:22:06 AM 42.9500 -80.4000 66° East 150 173 5,700 -400 Descending Toronto Center
Fri 09:23:06 AM 42.9833 -80.3667 36° Northeast 150 173 5,300 -350 Descending Toronto Center
Fri 09:24:06 AM 43.0000 -80.3167 65° Northeast 140 161 5,000 -200 Descending Toronto Center
Fri 09:25:06 AM 43.0167 -80.2667 65° Northeast 130 150 4,900  Descending Toronto Center
Fri 09:26:06 AM 43.0333 -80.2333 56° Northeast 130 150 5,000 50 Climbing Toronto Center
Fri 09:27:06 AM 43.0500 -80.1833 65° Northeast 140 161 5,000  Level Toronto Center
Fri 09:28:06 AM 43.0667 -80.1333 65° Northeast 140 161 5,000  Level Toronto Center
Fri 09:29:06 AM 43.1000 -80.0833 48° Northeast 140 161 5,000  Level Toronto Center
Fri 09:30:06 AM 43.1167 -80.0500 56° Northeast 140 161 5,000  Level Toronto Center
Fri 09:31:06 AM 43.1333 -80.0000 65° Northeast 140 161 5,000  Level Toronto Center
Fri 09:32:06 AM 43.1667 -79.9500 48° Northeast 140 161 5,000  Level Toronto Center
Fri 09:33:06 AM 43.2000 -79.9333 20° North 150 173 5,000  Level Toronto Center
Fri 09:34:06 AM 43.2167 -79.8833 65° Northeast 140 161 5,000 -50 Level Toronto Center
Fri 09:35:06 AM 43.2333 -79.8333 65° Northeast 140 161 4,900 -200 Descending Toronto Center
Fri 09:36:06 AM 43.2667 -79.8000 36° Northeast 140 161 4,600 -300 Descending Toronto Center
Fri 09:37:06 AM 43.2833 -79.7500 65° Northeast 140 161 4,300 -350 Descending Toronto Center
Fri 09:38:06 AM 43.3167 -79.7000 47° Northeast 140 161 3,900 -350 Descending Toronto Center
Fri 09:39:06 AM 43.3333 -79.6833 36° Northeast 140 161 3,600 -300 Descending Toronto Center
Fri 09:40:06 AM 43.3667 -79.6333 47° Northeast 140 161 3,300 -350 Descending Toronto Center
Fri 09:41:06 AM 43.3833 -79.5833 65° Northeast 140 161 2,900 -350 Descending Toronto Center
Fri 09:42:06 AM 43.4167 -79.5667 20° North 140 161 2,600 -300 Descending Toronto Center
Fri 09:43:06 AM 43.4333 -79.5167 65° Northeast 140 161 2,300 -250 Descending Toronto Center
Fri 09:44:06 AM 43.4667 -79.4667 47° Northeast 140 161 2,100 -200 Descending Toronto Center
Fri 09:45:06 AM 43.5000 -79.4500 20° North 130 150 1,900 -250 Descending Toronto Center
Fri 09:46:06 AM 43.5167 -79.4000 65° Northeast 130 150 1,600 -250 Descending Toronto Center
Fri 09:47:06 AM 43.5333 -79.3500 65° Northeast 140 161 1,400 -100 Descending Toronto Center
Fri 09:48:06 AM 43.5500 -79.3333 36° Northeast 130 150 1,400 -200 Level Toronto Center
Fri 09:49:06 AM 43.5833 -79.3333 360° North 100 115 1,000 -400 Descending Toronto Center
Fri 09:50:06 AM 43.6000 -79.3500 324° Northwest 80 92 600 -400 Descending Toronto Center

Login

Don't have an account? Register now (free) for customized features, flight alerts, and more!